createdAt,value
2023-02-13T00:00:50.121Z,94.41
2023-02-13T00:03:13.795Z,93.95
2023-02-13T00:05:37.444Z,93.95
2023-02-13T00:08:01.063Z,93.10
2023-02-13T00:10:24.755Z,94.62
2023-02-13T00:12:49.734Z,93.54
2023-02-13T00:15:13.487Z,92.99
2023-02-13T00:17:37.652Z,93.91
2023-02-13T00:20:01.364Z,92.55
2023-02-13T00:22:25.407Z,93.28
2023-02-13T00:24:49.134Z,93.00
2023-02-13T00:27:12.785Z,94.12
2023-02-13T00:29:37.882Z,92.80
2023-02-13T00:32:02.037Z,92.34
2023-02-13T00:34:25.746Z,91.32
2023-02-13T00:36:49.343Z,92.15
2023-02-13T00:39:14.217Z,91.29
2023-02-13T00:41:37.887Z,91.51
2023-02-13T00:44:01.603Z,91.63
2023-02-13T00:46:29.261Z,90.65
2023-02-13T00:48:52.940Z,90.27
2023-02-13T00:51:16.669Z,90.38
2023-02-13T00:53:40.820Z,90.33
2023-02-13T00:56:06.288Z,89.95
2023-02-13T00:58:29.995Z,89.56
2023-02-13T01:00:56.160Z,89.88
2023-02-13T01:03:23.446Z,90.21
2023-02-13T01:05:47.713Z,90.70
2023-02-13T01:08:12.243Z,90.38
2023-02-13T01:10:35.846Z,89.90
2023-02-13T01:12:59.526Z,90.42
2023-02-13T01:15:24.475Z,89.82
2023-02-13T01:17:48.203Z,90.79
2023-02-13T01:20:15.135Z,90.55
2023-02-13T01:22:38.838Z,91.25
2023-02-13T01:25:02.569Z,90.17
2023-02-13T01:27:29.741Z,89.78
2023-02-13T01:29:53.335Z,90.46
2023-02-13T01:32:17.002Z,89.53
2023-02-13T01:34:41.968Z,90.39
2023-02-13T01:37:09.398Z,91.37
2023-02-13T01:39:33.162Z,90.71
2023-02-13T01:41:56.811Z,91.31
2023-02-13T01:44:54.151Z,90.39
2023-02-13T01:47:24.621Z,90.57
2023-02-13T01:49:48.969Z,91.10
2023-02-13T01:52:14.911Z,91.12
2023-02-13T01:54:38.661Z,91.69
2023-02-13T01:57:07.060Z,92.64
2023-02-13T01:59:36.952Z,90.91
2023-02-13T02:02:02.091Z,90.85
2023-02-13T02:04:31.261Z,91.17
2023-02-13T02:06:57.695Z,91.82
2023-02-13T02:09:31.862Z,92.02
2023-02-13T02:12:02.704Z,91.63
2023-02-13T02:14:28.611Z,92.37
2023-02-13T02:16:54.304Z,91.64
2023-02-13T02:19:33.879Z,91.08
2023-02-13T02:23:02.003Z,90.95
2023-02-13T02:26:22.090Z,91.92
2023-02-13T02:29:40.253Z,90.55
2023-02-13T02:32:30.000Z,90.56
2023-02-13T02:35:05.537Z,92.24
2023-02-13T02:37:53.306Z,92.08
2023-02-13T02:40:27.350Z,92.16
2023-02-13T02:43:09.632Z,91.75
2023-02-13T02:45:42.549Z,92.49
2023-02-13T02:48:37.290Z,92.24
2023-02-13T02:51:09.597Z,92.37
2023-02-13T02:53:40.691Z,92.24
2023-02-13T02:56:14.002Z,91.93
2023-02-13T02:59:02.005Z,91.47
2023-02-13T03:01:48.132Z,92.03
2023-02-13T03:04:35.550Z,90.92
2023-02-13T03:07:04.845Z,90.42
2023-02-13T03:09:50.831Z,90.60
2023-02-13T03:12:38.072Z,91.57
2023-02-13T03:15:01.786Z,90.72
2023-02-13T03:17:43.075Z,90.64
2023-02-13T03:20:42.364Z,90.54
2023-02-13T03:23:16.015Z,91.01
2023-02-13T03:25:59.686Z,91.89
2023-02-13T03:28:49.450Z,91.27
2023-02-13T03:31:23.650Z,92.18
2023-02-13T03:34:00.223Z,91.48
2023-02-13T03:36:52.993Z,91.70
2023-02-13T03:39:22.596Z,91.52
2023-02-13T03:41:55.862Z,90.51
2023-02-13T03:44:26.813Z,91.63
2023-02-13T03:46:53.592Z,91.51
2023-02-13T03:49:42.302Z,90.17
2023-02-13T03:52:12.884Z,92.47
2023-02-13T03:55:01.284Z,91.63
2023-02-13T03:57:44.495Z,92.04
2023-02-13T04:00:16.711Z,92.21
2023-02-13T04:02:55.842Z,91.41
2023-02-13T04:05:24.217Z,93.09
2023-02-13T04:07:50.199Z,93.05
2023-02-13T04:10:17.593Z,92.79
2023-02-13T04:12:52.324Z,92.45
2023-02-13T04:15:21.080Z,92.50
2023-02-13T04:17:49.802Z,91.90
2023-02-13T04:20:14.367Z,91.51
2023-02-13T04:22:44.810Z,90.55
2023-02-13T04:25:10.228Z,90.74
2023-02-13T04:27:33.906Z,89.83
2023-02-13T04:29:57.555Z,91.88
2023-02-13T04:32:21.189Z,92.09
2023-02-13T04:34:44.874Z,92.29
2023-02-13T04:37:08.480Z,91.54
2023-02-13T04:39:32.176Z,90.87
2023-02-13T04:41:57.222Z,90.63
2023-02-13T04:44:20.961Z,90.44
2023-02-13T04:46:44.546Z,91.63
2023-02-13T04:49:08.289Z,91.76
2023-02-13T04:51:31.929Z,91.60
2023-02-13T04:53:55.600Z,91.11
2023-02-13T04:56:20.072Z,92.30
2023-02-13T04:58:45.208Z,92.85
2023-02-13T05:01:14.415Z,93.62
2023-02-13T05:03:38.070Z,92.38
2023-02-13T05:06:01.657Z,93.01
2023-02-13T05:08:25.379Z,93.26
2023-02-13T05:10:49.648Z,92.77
2023-02-13T05:13:14.073Z,92.17
2023-02-13T05:15:39.139Z,91.44
2023-02-13T05:18:02.818Z,91.25
2023-02-13T05:20:26.542Z,90.44
2023-02-13T05:23:05.651Z,89.79
2023-02-13T05:25:29.314Z,90.46
2023-02-13T05:27:52.875Z,90.99
2023-02-13T05:30:16.069Z,91.04
2023-02-13T05:32:43.272Z,90.23
2023-02-13T05:35:07.752Z,89.54
2023-02-13T05:37:31.332Z,90.13
2023-02-13T05:39:54.979Z,90.34
2023-02-13T05:42:18.631Z,89.82
2023-02-13T05:44:42.282Z,89.37
2023-02-13T05:47:06.407Z,89.58
2023-02-13T05:49:31.541Z,89.07
2023-02-13T05:51:55.120Z,90.83
2023-02-13T05:54:19.090Z,89.51
2023-02-13T05:56:42.791Z,88.81
2023-02-13T05:59:06.458Z,90.29
2023-02-13T06:01:30.043Z,89.96
2023-02-13T06:03:53.729Z,89.54
2023-02-13T06:06:18.926Z,89.84
2023-02-13T06:08:42.562Z,89.65
2023-02-13T06:11:06.534Z,89.21
2023-02-13T06:13:30.139Z,88.11
2023-02-13T06:15:53.746Z,88.55
2023-02-13T06:18:17.407Z,89.49
2023-02-13T06:20:41.146Z,88.59
2023-02-13T06:23:06.693Z,88.61
2023-02-13T06:25:31.814Z,88.66
2023-02-13T06:27:55.485Z,88.69
2023-02-13T06:30:19.990Z,89.36
2023-02-13T06:32:43.917Z,88.40
2023-02-13T06:35:08.765Z,88.27
2023-02-13T06:37:32.439Z,88.34
2023-02-13T06:39:57.411Z,88.53
2023-02-13T06:42:21.072Z,88.52
2023-02-13T06:44:44.617Z,88.80
2023-02-13T06:47:08.449Z,87.80
2023-02-13T06:49:32.042Z,88.12
2023-02-13T06:51:55.701Z,88.10
2023-02-13T06:54:19.298Z,88.84
2023-02-13T06:56:44.373Z,88.34
2023-02-13T06:59:08.266Z,87.90
2023-02-13T07:01:32.887Z,87.93
2023-02-13T07:03:56.514Z,89.61
2023-02-13T07:06:20.643Z,88.99
2023-02-13T07:08:44.245Z,88.65
2023-02-13T07:11:07.890Z,87.88
2023-02-13T07:13:32.899Z,88.62
2023-02-13T07:15:58.134Z,87.92
2023-02-13T07:18:21.785Z,87.54
2023-02-13T07:20:45.435Z,87.38
2023-02-13T07:23:09.110Z,87.87
2023-02-13T07:25:33.151Z,88.32
2023-02-13T07:27:56.972Z,87.18
2023-02-13T07:30:22.787Z,87.64
2023-02-13T07:32:46.380Z,87.21
2023-02-13T07:35:10.258Z,87.75
2023-02-13T07:37:34.117Z,87.89
2023-02-13T07:39:57.778Z,87.67
2023-02-13T07:42:21.463Z,87.96
2023-02-13T07:44:45.196Z,87.47
2023-02-13T07:47:10.296Z,87.41
2023-02-13T07:49:34.429Z,87.59
2023-02-13T07:51:59.047Z,89.26
2023-02-13T07:54:23.015Z,88.59
2023-02-13T07:56:46.608Z,88.06
2023-02-13T07:59:11.228Z,88.54
2023-02-13T08:01:34.920Z,87.52
2023-02-13T08:04:00.150Z,87.82
2023-02-13T08:06:24.082Z,87.90
2023-02-13T08:08:47.898Z,88.33
2023-02-13T08:11:43.164Z,87.72
2023-02-13T08:14:06.824Z,87.93
2023-02-13T08:16:30.431Z,87.61
2023-02-13T08:18:54.178Z,87.67
2023-02-13T08:21:19.180Z,87.89
2023-02-13T08:23:43.627Z,87.79
2023-02-13T08:26:07.354Z,88.40
2023-02-13T08:28:31.635Z,88.09
2023-02-13T08:30:55.365Z,88.35
2023-02-13T08:33:19.126Z,88.67
2023-02-13T08:35:42.771Z,89.37
2023-02-13T08:38:09.004Z,88.01
2023-02-13T08:40:32.737Z,87.59
2023-02-13T08:43:02.402Z,87.34
2023-02-13T08:45:25.995Z,87.64
2023-02-13T08:47:49.646Z,87.89
2023-02-13T08:50:13.341Z,87.75
2023-02-13T08:52:37.285Z,87.30
2023-02-13T08:55:03.585Z,87.37
2023-02-13T08:57:27.330Z,88.05
2023-02-13T08:59:50.965Z,87.93
2023-02-13T09:02:14.880Z,87.16
2023-02-13T09:04:38.522Z,88.77
2023-02-13T09:07:02.112Z,89.49
2023-02-13T09:09:25.769Z,89.97
2023-02-13T09:11:51.717Z,88.69
2023-02-13T09:14:15.460Z,91.02
2023-02-13T09:16:39.154Z,90.57
2023-02-13T09:19:02.779Z,90.69
2023-02-13T09:21:26.433Z,91.24
2023-02-13T09:23:51.081Z,91.13
2023-02-13T09:26:18.589Z,91.33
2023-02-13T09:28:45.647Z,91.57
2023-02-13T09:31:10.755Z,91.06
2023-02-13T09:33:35.014Z,91.70
2023-02-13T09:35:58.930Z,91.78
2023-02-13T09:38:22.798Z,92.34
2023-02-13T09:40:51.816Z,92.19
2023-02-13T09:43:20.060Z,93.54
2023-02-13T09:45:48.477Z,94.41
2023-02-13T09:48:22.472Z,94.27
2023-02-13T09:50:46.251Z,95.49
2023-02-13T09:53:18.852Z,96.29
2023-02-13T09:55:53.060Z,95.95
2023-02-13T09:58:33.910Z,95.02
2023-02-13T10:01:03.523Z,95.65
2023-02-13T10:03:32.005Z,95.12
2023-02-13T10:06:07.771Z,95.41
2023-02-13T10:08:52.298Z,95.63
2023-02-13T10:11:35.468Z,95.07
2023-02-13T10:14:09.367Z,94.34
2023-02-13T10:16:39.740Z,94.67
2023-02-13T10:19:10.349Z,95.41
2023-02-13T10:21:39.923Z,94.16
2023-02-13T10:24:11.561Z,95.16
2023-02-13T10:26:45.947Z,95.61
2023-02-13T10:29:33.945Z,95.90
2023-02-13T10:32:05.705Z,97.26
2023-02-13T10:34:44.433Z,96.52
2023-02-13T10:37:15.757Z,95.85
2023-02-13T10:39:39.404Z,96.50
2023-02-13T10:42:10.413Z,94.95
2023-02-13T10:45:03.317Z,94.46
2023-02-13T10:47:48.614Z,93.93
2023-02-13T10:50:23.334Z,94.76
2023-02-13T10:52:59.599Z,94.71
2023-02-13T10:56:01.455Z,93.85
2023-02-13T10:58:40.575Z,93.35
2023-02-13T11:01:11.710Z,92.21
2023-02-13T11:03:36.838Z,93.11
2023-02-13T11:06:02.429Z,92.04
2023-02-13T11:08:35.433Z,92.32
2023-02-13T11:10:59.223Z,92.51
2023-02-13T11:13:25.319Z,92.37
2023-02-13T11:16:02.162Z,90.85
2023-02-13T11:18:29.074Z,90.61
2023-02-13T11:21:11.678Z,90.74
2023-02-13T11:23:44.052Z,90.75
2023-02-13T11:26:10.730Z,89.28
2023-02-13T11:28:38.824Z,89.70
2023-02-13T11:31:15.539Z,90.07
2023-02-13T11:33:39.515Z,89.07
2023-02-13T11:36:09.806Z,89.34
2023-02-13T11:38:33.583Z,89.49
2023-02-13T11:41:08.924Z,88.64
2023-02-13T11:43:37.063Z,88.40
2023-02-13T11:46:07.564Z,88.61
2023-02-13T11:48:31.365Z,88.33
2023-02-13T11:50:57.189Z,87.58
2023-02-13T11:53:25.627Z,87.96
2023-02-13T11:56:06.179Z,87.67
2023-02-13T11:58:31.970Z,87.54
2023-02-13T12:01:28.564Z,87.30
2023-02-13T12:04:05.882Z,87.30
2023-02-13T12:06:29.712Z,85.93
2023-02-13T12:08:54.732Z,85.64
2023-02-13T12:11:26.155Z,86.22
2023-02-13T12:13:51.681Z,86.96
2023-02-13T12:16:28.260Z,86.62
2023-02-13T12:18:57.525Z,86.33
2023-02-13T12:21:44.287Z,86.63
2023-02-13T12:24:21.972Z,84.52
2023-02-13T12:26:50.002Z,84.25
2023-02-13T12:30:01.845Z,84.98
2023-02-13T12:32:38.238Z,83.32
2023-02-13T12:35:57.065Z,83.80
2023-02-13T12:38:40.905Z,83.55
2023-02-13T12:41:19.752Z,83.26
2023-02-13T12:44:20.990Z,82.72
2023-02-13T12:46:58.443Z,84.61
2023-02-13T12:49:43.015Z,83.48
2023-02-13T12:52:26.944Z,81.47
2023-02-13T12:55:11.245Z,82.83
2023-02-13T12:57:54.284Z,81.82
2023-02-13T13:00:31.929Z,81.86
2023-02-13T13:03:25.465Z,82.51
2023-02-13T13:06:14.947Z,80.88
2023-02-13T13:09:14.045Z,80.49
2023-02-13T13:12:05.215Z,81.17
2023-02-13T13:14:42.559Z,80.86
2023-02-13T13:17:23.587Z,81.17
2023-02-13T13:19:55.447Z,81.20
2023-02-13T13:22:25.431Z,80.53
2023-02-13T13:25:04.154Z,80.82
2023-02-13T13:27:33.166Z,80.18
2023-02-13T13:30:03.132Z,79.69
2023-02-13T13:32:28.262Z,79.00
2023-02-13T13:34:52.030Z,80.10
2023-02-13T13:37:26.861Z,79.84
2023-02-13T13:39:57.299Z,80.59
2023-02-13T13:42:27.688Z,79.18
2023-02-13T13:45:25.548Z,78.50
2023-02-13T13:48:32.717Z,79.50
2023-02-13T13:50:58.368Z,79.63
2023-02-13T13:53:25.570Z,77.99
2023-02-13T13:56:09.848Z,78.38
2023-02-13T13:58:42.079Z,77.59
2023-02-13T14:01:29.414Z,77.75
2023-02-13T14:03:56.522Z,76.57
2023-02-13T14:06:22.557Z,78.07
2023-02-13T14:09:04.635Z,76.47
2023-02-13T14:11:43.115Z,77.04
2023-02-13T14:14:53.631Z,76.96
2023-02-13T14:17:55.113Z,77.84
2023-02-13T14:20:29.468Z,76.60
2023-02-13T14:22:53.188Z,76.72
2023-02-13T14:25:26.342Z,77.39
2023-02-13T14:27:59.938Z,77.26
2023-02-13T14:30:30.585Z,77.70
2023-02-13T14:32:55.878Z,76.98
2023-02-13T14:35:27.187Z,76.23
2023-02-13T14:37:53.491Z,77.31
2023-02-13T14:40:48.596Z,76.66
2023-02-13T14:43:36.802Z,76.40
2023-02-13T14:46:17.556Z,75.70
2023-02-13T14:48:48.864Z,77.35
2023-02-13T14:51:28.859Z,77.92
2023-02-13T14:53:56.761Z,76.45
2023-02-13T14:56:24.018Z,76.75
2023-02-13T14:58:53.170Z,76.74
2023-02-13T15:01:29.698Z,76.56
2023-02-13T15:04:01.885Z,77.92
2023-02-13T15:06:31.340Z,76.88
2023-02-13T15:08:55.434Z,77.84
2023-02-13T15:11:39.318Z,76.05
2023-02-13T15:14:32.689Z,76.61
2023-02-13T15:17:02.016Z,76.21
2023-02-13T15:19:28.444Z,77.07
2023-02-13T15:21:56.277Z,77.93
2023-02-13T15:24:24.066Z,77.35
2023-02-13T15:26:57.018Z,76.37
2023-02-13T15:29:29.405Z,76.25
2023-02-13T15:31:57.378Z,76.60
2023-02-13T15:34:29.608Z,76.87
2023-02-13T15:36:54.314Z,77.36
2023-02-13T15:39:20.477Z,76.49
2023-02-13T15:41:47.496Z,75.99
2023-02-13T15:44:19.713Z,76.36
2023-02-13T15:46:45.232Z,77.30
2023-02-13T15:49:15.639Z,76.38
2023-02-13T15:51:41.092Z,77.92
2023-02-13T15:54:08.127Z,76.72
2023-02-13T15:56:32.856Z,77.45
2023-02-13T15:58:57.438Z,77.07
2023-02-13T16:01:21.710Z,76.85
2023-02-13T16:03:48.119Z,77.33
2023-02-13T16:06:16.894Z,76.53
2023-02-13T16:08:46.536Z,75.70
2023-02-13T16:11:32.142Z,75.86
2023-02-13T16:14:08.187Z,76.11
2023-02-13T16:16:36.541Z,76.08
2023-02-13T16:19:00.412Z,76.62
2023-02-13T16:21:25.146Z,76.87
2023-02-13T16:23:50.319Z,76.48
2023-02-13T16:26:16.812Z,76.51
2023-02-13T16:28:40.935Z,76.19
2023-02-13T16:31:06.403Z,76.13
2023-02-13T16:33:31.980Z,77.32
2023-02-13T16:35:57.982Z,77.58
2023-02-13T16:38:34.756Z,78.44
2023-02-13T16:41:02.329Z,78.65
2023-02-13T16:43:44.964Z,78.90
2023-02-13T16:46:27.670Z,79.57
2023-02-13T16:49:05.746Z,79.22
2023-02-13T16:51:37.700Z,79.14
2023-02-13T16:54:03.812Z,78.30
2023-02-13T16:56:28.951Z,78.47
2023-02-13T16:58:53.899Z,77.97
2023-02-13T17:01:19.177Z,77.57
2023-02-13T17:03:43.190Z,77.15
2023-02-13T17:06:07.356Z,79.69
2023-02-13T17:08:32.703Z,78.39
2023-02-13T17:11:05.823Z,78.07
2023-02-13T17:13:31.160Z,78.03
2023-02-13T17:15:55.281Z,77.74
2023-02-13T17:18:19.113Z,77.56
2023-02-13T17:20:46.698Z,77.99
2023-02-13T17:23:18.558Z,77.48
2023-02-13T17:25:43.540Z,78.03
2023-02-13T17:28:14.950Z,77.97
2023-02-13T17:30:40.087Z,77.11
2023-02-13T17:33:07.890Z,77.25
2023-02-13T17:35:31.957Z,76.74
2023-02-13T17:37:55.635Z,76.56
2023-02-13T17:40:21.990Z,76.67
2023-02-13T17:42:47.166Z,76.63
2023-02-13T17:45:15.595Z,76.89
2023-02-13T17:47:40.682Z,76.00
2023-02-13T17:50:09.694Z,76.47
2023-02-13T17:52:34.504Z,75.78
2023-02-13T17:54:58.152Z,75.43
2023-02-13T17:57:21.751Z,76.58
2023-02-13T17:59:46.269Z,76.87
2023-02-13T18:02:18.493Z,76.04
2023-02-13T18:04:43.767Z,76.64
2023-02-13T18:07:07.617Z,74.84
2023-02-13T18:09:31.390Z,74.50
2023-02-13T18:12:05.091Z,75.73
2023-02-13T18:14:32.063Z,75.04
2023-02-13T18:16:55.686Z,75.64
2023-02-13T18:19:19.422Z,74.51
2023-02-13T18:21:44.409Z,74.57
2023-02-13T18:24:08.810Z,75.60
2023-02-13T18:26:32.442Z,75.03
2023-02-13T18:28:56.096Z,74.81
2023-02-13T18:31:20.004Z,75.57
2023-02-13T18:33:43.755Z,75.58
2023-02-13T18:36:08.205Z,74.41
2023-02-13T18:38:33.284Z,75.59
2023-02-13T18:40:57.784Z,74.71
2023-02-13T18:43:22.965Z,74.82
2023-02-13T18:45:47.965Z,75.53
2023-02-13T18:48:13.676Z,75.13
2023-02-13T18:50:41.572Z,74.74
2023-02-13T18:53:06.100Z,75.45
2023-02-13T18:55:31.178Z,75.78
2023-02-13T18:57:54.851Z,75.91
2023-02-13T19:00:22.308Z,76.96
2023-02-13T19:02:46.099Z,76.56
2023-02-13T19:05:10.138Z,77.19
2023-02-13T19:07:34.190Z,77.05
2023-02-13T19:09:57.798Z,76.56
2023-02-13T19:12:23.040Z,76.08
2023-02-13T19:14:47.832Z,76.08
2023-02-13T19:17:11.905Z,76.36
2023-02-13T19:19:35.526Z,76.36
2023-02-13T19:21:59.232Z,76.33
2023-02-13T19:24:22.844Z,75.69
2023-02-13T19:26:47.313Z,76.19
2023-02-13T19:29:12.515Z,75.75
2023-02-13T19:31:36.579Z,76.26
2023-02-13T19:34:00.913Z,76.56
2023-02-13T19:36:26.848Z,76.38
2023-02-13T19:38:56.191Z,76.81
2023-02-13T19:41:20.296Z,75.94
2023-02-13T19:43:49.963Z,75.63
2023-02-13T19:46:15.163Z,75.52
2023-02-13T19:48:39.090Z,76.05
2023-02-13T19:51:08.069Z,76.65
2023-02-13T19:53:31.998Z,77.04
2023-02-13T19:56:00.833Z,77.56
2023-02-13T19:58:24.523Z,77.01
2023-02-13T20:00:49.171Z,75.75
2023-02-13T20:03:14.194Z,76.25
2023-02-13T20:05:41.401Z,75.60
2023-02-13T20:08:05.340Z,76.49
2023-02-13T20:10:29.024Z,76.12
2023-02-13T20:12:55.104Z,75.87
2023-02-13T20:15:19.159Z,76.43
2023-02-13T20:17:42.781Z,75.16
2023-02-13T20:20:09.763Z,74.85
2023-02-13T20:22:33.392Z,75.20
2023-02-13T20:24:57.016Z,75.22
2023-02-13T20:27:20.653Z,75.18
2023-02-13T20:29:44.665Z,75.85
2023-02-13T20:32:08.758Z,75.77
2023-02-13T20:34:44.208Z,75.60
2023-02-13T20:37:17.669Z,75.31
2023-02-13T20:39:41.286Z,75.92
2023-02-13T20:42:05.178Z,75.55
2023-02-13T20:44:29.647Z,76.81
2023-02-13T20:46:54.920Z,76.71
2023-02-13T20:49:21.913Z,75.87
2023-02-13T20:51:45.871Z,76.02
2023-02-13T20:54:12.316Z,76.88
2023-02-13T20:56:36.153Z,77.12
2023-02-13T20:59:02.559Z,76.15
2023-02-13T21:01:29.702Z,75.28
2023-02-13T21:03:56.201Z,74.61
2023-02-13T21:06:20.344Z,75.68
2023-02-13T21:08:45.202Z,76.16
2023-02-13T21:11:10.578Z,74.82
2023-02-13T21:13:35.286Z,75.25
2023-02-13T21:16:06.946Z,74.83
2023-02-13T21:18:30.640Z,74.53
2023-02-13T21:20:55.193Z,74.54
2023-02-13T21:23:19.169Z,73.84
2023-02-13T21:25:42.786Z,74.81
2023-02-13T21:28:08.082Z,74.92
2023-02-13T21:30:31.887Z,75.14
2023-02-13T21:32:56.002Z,74.86
2023-02-13T21:35:19.883Z,74.19
2023-02-13T21:37:43.527Z,74.38
2023-02-13T21:40:09.469Z,73.84
2023-02-13T21:42:33.159Z,73.49
2023-02-13T21:44:58.148Z,73.21
2023-02-13T21:47:21.841Z,75.15
2023-02-13T21:49:45.526Z,73.63
2023-02-13T21:52:09.271Z,73.78
2023-02-13T21:54:32.969Z,73.76
2023-02-13T21:56:56.578Z,73.52
2023-02-13T21:59:20.214Z,74.34
2023-02-13T22:01:47.081Z,74.51
2023-02-13T22:04:11.778Z,73.25
2023-02-13T22:06:37.593Z,73.31
2023-02-13T22:09:03.559Z,73.94
2023-02-13T22:11:27.941Z,74.20
2023-02-13T22:13:55.654Z,73.53
2023-02-13T22:16:19.337Z,73.58
2023-02-13T22:18:48.158Z,73.09
2023-02-13T22:21:14.533Z,73.16
2023-02-13T22:23:38.763Z,74.30
2023-02-13T22:26:03.072Z,74.06
2023-02-13T22:28:26.775Z,73.03
2023-02-13T22:30:51.682Z,73.33
2023-02-13T22:33:15.755Z,72.96
2023-02-13T22:35:41.605Z,73.52
2023-02-13T22:38:05.328Z,73.27
2023-02-13T22:40:29.091Z,73.48
2023-02-13T22:42:53.581Z,73.12
2023-02-13T22:45:17.486Z,73.82
2023-02-13T22:47:41.078Z,73.14
2023-02-13T22:50:04.952Z,73.53
2023-02-13T22:52:29.971Z,73.07
2023-02-13T22:54:53.667Z,73.00
2023-02-13T22:57:17.320Z,71.64
2023-02-13T22:59:40.972Z,71.79
2023-02-13T23:02:05.313Z,72.47
2023-02-13T23:04:28.985Z,72.37
2023-02-13T23:06:52.589Z,73.10
2023-02-13T23:09:17.664Z,73.21
2023-02-13T23:11:58.728Z,72.57
2023-02-13T23:14:24.747Z,72.68
2023-02-13T23:17:05.609Z,72.27
2023-02-13T23:19:30.122Z,72.19
2023-02-13T23:21:53.776Z,71.98
2023-02-13T23:24:18.899Z,71.79
2023-02-13T23:26:42.522Z,72.99
2023-02-13T23:29:06.257Z,72.31
2023-02-13T23:31:29.982Z,71.91
2023-02-13T23:33:53.672Z,71.43
2023-02-13T23:36:17.269Z,73.52
2023-02-13T23:38:40.931Z,72.86
2023-02-13T23:41:10.142Z,72.69
2023-02-13T23:43:33.820Z,71.88
2023-02-13T23:45:57.448Z,72.12
2023-02-13T23:48:21.124Z,71.48
2023-02-13T23:50:44.815Z,71.84
2023-02-13T23:53:08.465Z,72.13
2023-02-13T23:55:32.066Z,71.91
2023-02-13T23:57:57.327Z,71.75
